Jeff Brumfield — WDE3528 — position and weather

sailwx.info

Track history (hours):
 
Tides and Currents Weather Stations Pressure Air Temp Water Temp Dewpoint Dewpoint Depression Visibility Wind Speed Wind Dir Waves Ship Positions

Jeff Brumfield

Owner: Florida Marine Transporters, Inc., Mandeville, LA. More information available from US FCC via Universal Licensing System and Coast Guard Vessel Documentation Center.

Last reported at 2017-Oct-20 15:44 UTC. Time now 2017-Oct-22 06:19 UTC.
Position N 30°01' W 093°59'.

Length 27 m; draft 3.2 m.

Type: Towing. MMSI: 367340440.

Date/timePositionNaut miles runAvg speedWind from/ knotsBaromVisibWave heightAir tempDewpointWater temp
2017-Oct-20 15:44N 30°01' W 093°59'0 0.0
2017-Oct-20 14:34N 30°01' W 093°59'0 0.0
2017-Oct-20 11:56N 30°01' W 093°59'0 0.0
2017-Oct-19 14:18N 30°01' W 093°59'0 0.0
2017-Oct-19 14:01N 30°01' W 093°59'0 0.0
2017-Oct-19 13:30N 30°01' W 093°59'0 0.0
2017-Oct-19 12:58N 30°01' W 093°59'0 0.0
2017-Oct-19 12:30N 30°01' W 093°59'0 0.0
2017-Oct-19 11:53N 30°01' W 093°59'0 0.0
2017-Oct-19 11:02N 30°01' W 093°59'0 0.0
2017-Oct-19 11:00N 30°01' W 093°59'0 0.0
2017-Oct-19 10:03N 30°01' W 093°59'0 0.0
2017-Oct-19 09:57N 30°01' W 093°59'0 0.0
2017-Oct-19 09:30N 30°01' W 093°59'0 0.0
2017-Oct-19 09:00N 30°01' W 093°59'8 1.3
2017-Oct-19 02:24N 29°59' W 093°49'3 5.1
2017-Oct-19 01:50N 29°60' W 093°46'4 4.4
2017-Oct-19 00:53N 30°03' W 093°43'2 4.7
2017-Oct-19 00:30N 30°04' W 093°41'2 4.7
2017-Oct-19 00:00N 30°04' W 093°39'2 4.3
2017-Oct-18 23:30N 30°03' W 093°36'2 4.8
2017-Oct-18 23:00N 30°04' W 093°33'1 2.5
2017-Oct-18 22:30N 30°04' W 093°32'2 4.6
2017-Oct-18 22:01N 30°04' W 093°29'2 4.6
2017-Oct-18 21:31N 30°04' W 093°27'2 4.5
2017-Oct-18 21:00N 30°04' W 093°24'2 4.3
2017-Oct-18 20:30N 30°04' W 093°22'2 4.1
2017-Oct-18 20:00N 30°05' W 093°20'2 3.1
2017-Oct-18 19:30N 30°06' W 093°19'0 0.0
2017-Oct-18 19:00N 30°06' W 093°19'0 0.0
2017-Oct-18 18:31N 30°06' W 093°19'0 0.0
2017-Oct-18 18:00N 30°06' W 093°19'1 1.6
2017-Oct-18 17:31N 30°06' W 093°20'2 4.3
2017-Oct-18 17:01N 30°08' W 093°19'0 0.2
2017-Oct-18 16:31N 30°08' W 093°19'0 0.0
2017-Oct-18 16:00N 30°08' W 093°19'0 0.0
2017-Oct-18 15:31N 30°08' W 093°19'0 0.0
2017-Oct-18 15:01N 30°08' W 093°19'0 0.0
2017-Oct-18 14:01N 30°08' W 093°19'0 0.0
2017-Oct-18 13:30N 30°08' W 093°19'0 0.0
2017-Oct-18 13:00N 30°08' W 093°19'0 0.0
2017-Oct-18 12:30N 30°08' W 093°19'0 0.0
2017-Oct-18 12:00N 30°08' W 093°19'0 0.0
2017-Oct-18 11:31N 30°08' W 093°19'0 0.0
2017-Oct-18 11:00N 30°08' W 093°19'0 0.0
2017-Oct-18 10:30N 30°08' W 093°19'0 0.0
2017-Oct-18 10:01N 30°08' W 093°19'0 0.0
2017-Oct-18 09:31N 30°08' W 093°19'0 0.0
2017-Oct-18 09:01N 30°08' W 093°19'0 0.0
2017-Oct-18 08:31N 30°08' W 093°19'0 0.0
2017-Oct-18 08:00N 30°08' W 093°19'0 0.0
2017-Oct-18 07:31N 30°08' W 093°19'0 0.0
2017-Oct-18 07:00N 30°08' W 093°19'0 0.0
2017-Oct-18 06:31N 30°08' W 093°19'0 0.0
2017-Oct-18 06:01N 30°08' W 093°19'0 0.0
2017-Oct-18 05:31N 30°08' W 093°19'0 0.0
2017-Oct-18 05:00N 30°08' W 093°19'0 0.0
2017-Oct-18 04:30N 30°08' W 093°19'0 0.0
2017-Oct-18 04:00N 30°08' W 093°19'0 0.0
2017-Oct-18 03:31N 30°08' W 093°19'0 0.0
2017-Oct-18 03:01N 30°08' W 093°19'0 0.0
2017-Oct-18 02:31N 30°08' W 093°19'0 0.0
2017-Oct-18 02:01N 30°08' W 093°19'0 0.4
2017-Oct-18 01:30N 30°08' W 093°19'1 2.0
2017-Oct-18 01:01N 30°07' W 093°20'2 3.5
2017-Oct-18 00:30N 30°06' W 093°20'1 1.7
2017-Oct-18 00:01N 30°05' W 093°20'0 0.0
2017-Oct-17 23:30N 30°05' W 093°20'0 0.0
2017-Oct-17 23:01N 30°05' W 093°20'0 0.0
2017-Oct-17 22:30N 30°05' W 093°20'0 0.0
2017-Oct-17 22:01N 30°05' W 093°20'0 0.0
2017-Oct-17 21:31N 30°05' W 093°20'0 0.0
2017-Oct-17 21:00N 30°05' W 093°20'0 0.0
2017-Oct-17 20:30N 30°05' W 093°20'0 0.0
2017-Oct-17 20:00N 30°05' W 093°20'0 0.0
2017-Oct-17 19:30N 30°05' W 093°20'0 0.0
2017-Oct-17 19:00N 30°05' W 093°20'0 0.0
2017-Oct-17 18:31N 30°05' W 093°20'0 0.0
2017-Oct-17 18:01N 30°05' W 093°20'0 0.0
2017-Oct-17 17:31N 30°05' W 093°20'0 0.0
2017-Oct-17 17:01N 30°05' W 093°20'0 0.0
2017-Oct-17 16:31N 30°05' W 093°20'0 0.0
2017-Oct-17 16:01N 30°05' W 093°20'0 0.0
2017-Oct-17 15:31N 30°05' W 093°20'0 0.0
2017-Oct-17 15:00N 30°05' W 093°20'0 0.0
2017-Oct-17 14:30N 30°05' W 093°20'0 0.0
2017-Oct-17 14:00N 30°05' W 093°20'0 0.0
2017-Oct-17 13:31N 30°05' W 093°20'0 0.0
2017-Oct-17 13:00N 30°05' W 093°20'0 0.0
2017-Oct-17 12:30N 30°05' W 093°20'0 0.0
2017-Oct-17 12:01N 30°05' W 093°20'0 0.0
2017-Oct-17 11:30N 30°05' W 093°20'0 0.0
2017-Oct-17 11:00N 30°05' W 093°20'0 0.0
2017-Oct-17 10:30N 30°05' W 093°20'0 0.0
2017-Oct-17 10:01N 30°05' W 093°20'0 0.0
2017-Oct-17 09:31N 30°05' W 093°20'0 0.0
2017-Oct-17 09:00N 30°05' W 093°20'0 0.0
2017-Oct-17 08:31N 30°05' W 093°20'0 0.0
2017-Oct-17 08:00N 30°05' W 093°20'0 0.0
2017-Oct-17 07:31N 30°05' W 093°20'0 0.0
2017-Oct-17 07:00N 30°05' W 093°20'0 0.0
2017-Oct-17 06:31N 30°05' W 093°20'0 0.0
2017-Oct-17 06:01N 30°05' W 093°20'0 0.0
2017-Oct-17 05:31N 30°05' W 093°20'0 0.0
2017-Oct-17 05:00N 30°05' W 093°20'0 0.0
2017-Oct-17 04:30N 30°05' W 093°20'0 0.0
2017-Oct-17 04:00N 30°05' W 093°20'0 0.0
2017-Oct-17 03:30N 30°05' W 093°20'0 0.0
2017-Oct-17 03:01N 30°05' W 093°20'0 0.0
2017-Oct-17 02:31N 30°05' W 093°20'0 0.0
2017-Oct-17 02:00N 30°05' W 093°20'0 0.0
2017-Oct-17 01:31N 30°05' W 093°20'0 0.0
2017-Oct-17 01:01N 30°05' W 093°20'0 0.0
2017-Oct-17 00:30N 30°05' W 093°20'0 0.0
2017-Oct-17 00:01N 30°05' W 093°20'0 0.0
2017-Oct-16 23:30N 30°05' W 093°20'0 0.0
2017-Oct-16 23:00N 30°05' W 093°20'0 0.0
2017-Oct-16 22:31N 30°05' W 093°20'0 0.0
2017-Oct-16 22:01N 30°05' W 093°20'0 0.0
2017-Oct-16 21:31N 30°05' W 093°20'0 0.0
2017-Oct-16 21:01N 30°05' W 093°20'0 0.0
2017-Oct-16 20:31N 30°05' W 093°20'0 0.0
2017-Oct-16 20:01N 30°05' W 093°20'0 0.0
2017-Oct-16 19:31N 30°05' W 093°20'0 0.0
2017-Oct-16 19:01N 30°05' W 093°20'0 0.0
2017-Oct-16 18:30N 30°05' W 093°20'0 0.0
2017-Oct-16 18:01N 30°05' W 093°20'0 0.0
2017-Oct-16 17:30N 30°05' W 093°20'0 0.0
2017-Oct-16 17:01N 30°05' W 093°20'0 0.0
2017-Oct-16 16:31N 30°05' W 093°20'0 0.0
2017-Oct-16 16:00N 30°05' W 093°20'0 0.0
2017-Oct-16 15:30N 30°05' W 093°20'0 0.0
2017-Oct-16 15:00N 30°05' W 093°20'0 0.0
2017-Oct-16 14:00N 30°05' W 093°20'0 0.0
2017-Oct-16 13:31N 30°05' W 093°20'0 0.0
2017-Oct-16 13:01N 30°05' W 093°20'0 0.0
2017-Oct-16 12:30N 30°05' W 093°20'0 0.0
2017-Oct-16 12:00N 30°05' W 093°20'0 0.0
2017-Oct-16 11:31N 30°05' W 093°20'0 0.0
2017-Oct-16 11:01N 30°05' W 093°20'0 0.0
2017-Oct-16 10:31N 30°05' W 093°20'0 0.0
2017-Oct-16 10:00N 30°05' W 093°20'0 0.0
2017-Oct-16 09:30N 30°05' W 093°20'0 0.0
2017-Oct-16 09:00N 30°05' W 093°20'0 0.0
2017-Oct-16 08:31N 30°05' W 093°20'0 0.0
2017-Oct-16 08:01N 30°05' W 093°20'0 0.0
2017-Oct-16 07:30N 30°05' W 093°20'0 0.0
2017-Oct-16 07:01N 30°05' W 093°20'0 0.0
2017-Oct-16 06:31N 30°05' W 093°20'0 0.0
2017-Oct-16 06:01N 30°05' W 093°20'0 0.0
2017-Oct-16 05:30N 30°05' W 093°20'0 0.0
2017-Oct-16 05:01N 30°05' W 093°20'0 0.0
2017-Oct-16 04:30N 30°05' W 093°20'0 0.0
2017-Oct-16 04:00N 30°05' W 093°20'0 0.0
2017-Oct-16 03:30N 30°05' W 093°20'0 0.0
2017-Oct-16 03:01N 30°05' W 093°20'0 0.0
2017-Oct-16 02:31N 30°05' W 093°20'0 0.0
2017-Oct-16 02:01N 30°05' W 093°20'0 0.0
2017-Oct-16 01:31N 30°05' W 093°20'0 0.0
2017-Oct-16 01:01N 30°05' W 093°20'0 0.0
2017-Oct-16 00:31N 30°05' W 093°20'0 0.0
2017-Oct-16 00:00N 30°05' W 093°20'0 0.0
2017-Oct-15 23:30N 30°05' W 093°20'0 0.0
2017-Oct-15 23:00N 30°05' W 093°20'0 0.0
2017-Oct-15 22:31N 30°05' W 093°20'0 0.0
2017-Oct-15 22:01N 30°05' W 093°20'0 0.0
2017-Oct-15 21:31N 30°05' W 093°20'0 0.0
2017-Oct-15 21:01N 30°05' W 093°20'0 0.0
2017-Oct-15 20:31N 30°05' W 093°20'0 0.0
2017-Oct-15 20:01N 30°05' W 093°20'0 0.0
2017-Oct-15 19:30N 30°05' W 093°20'0 0.0
2017-Oct-15 19:01N 30°05' W 093°20'0 0.1
2017-Oct-15 18:31N 30°05' W 093°20'0 0.6
2017-Oct-15 18:01N 30°05' W 093°20'0 0.0
2017-Oct-15 17:31N 30°05' W 093°20'0 0.0
2017-Oct-15 17:01N 30°05' W 093°20'0 0.0
2017-Oct-15 16:31N 30°05' W 093°20'0 0.0
2017-Oct-15 16:01N 30°05' W 093°20'0 0.0
2017-Oct-15 15:30N 30°05' W 093°20'0 0.0
2017-Oct-15 15:00N 30°05' W 093°20'0 0.3
2017-Oct-15 14:00N 30°05' W 093°20'1 2.4
2017-Oct-15 13:30N 30°06' W 093°19'0 0.7
2017-Oct-15 13:01N 30°06' W 093°19'2 4.1
2017-Oct-15 12:31N 30°04' W 093°21'2 3.6
2017-Oct-15 12:01N 30°04' W 093°23'2 4.7
2017-Oct-15 11:30N 30°04' W 093°26'2 4.7
2017-Oct-15 11:01N 30°04' W 093°28'2 4.7
2017-Oct-15 10:30N 30°04' W 093°31'2 4.6
2017-Oct-15 09:59N 30°04' W 093°34'2 4.4
2017-Oct-15 09:26N 30°04' W 093°37'3 4.7
2017-Oct-15 08:53N 30°04' W 093°40'2 5.2
2017-Oct-15 08:27N 30°03' W 093°42'15 0.9
2017-Oct-14 15:32N 30°01' W 093°59'0 0.0
2017-Oct-14 14:32N 30°01' W 093°59'0 0.0
2017-Oct-14 14:25N 30°01' W 093°59'0 0.0
2017-Oct-14 14:00N 30°01' W 093°59'0 0.0
2017-Oct-14 13:28N 30°01' W 093°59'0 0.0
2017-Oct-14 11:46N 30°01' W 093°59'0 0.0
2017-Oct-14 11:29N 30°01' W 093°59'0 0.0
2017-Oct-14 10:52N 30°01' W 093°59'0 0.0
2017-Oct-14 10:29N 30°01' W 093°59'0 0.0
2017-Oct-14 09:44N 30°01' W 093°59'0 0.2
2017-Oct-14 07:45N 30°01' W 093°59'0 0.0
2017-Oct-14 07:31N 30°01' W 093°59'0 0.0
2017-Oct-14 06:59N 30°01' W 093°59'6 0.3
2017-Oct-13 12:29N 29°59' W 093°52'8 4.1
2017-Oct-13 10:32N 30°02' W 093°44'0 4.6
2017-Oct-13 10:29N 30°03' W 093°44'2 4.3
2017-Oct-13 09:58N 30°04' W 093°42'1 2.5
2017-Oct-13 09:30N 30°04' W 093°40'2 3.1
2017-Oct-13 08:59N 30°04' W 093°39'2 3.8
2017-Oct-13 08:30N 30°04' W 093°36'2 3.2
2017-Oct-13 08:00N 30°04' W 093°35'2 4.4
2017-Oct-13 07:30N 30°04' W 093°32'2 3.7
2017-Oct-13 07:01N 30°04' W 093°30'2 4.6
2017-Oct-13 06:31N 30°04' W 093°27'2 4.6
2017-Oct-13 06:00N 30°04' W 093°25'2 4.2
2017-Oct-13 05:30N 30°04' W 093°22'2 3.8
2017-Oct-13 05:00N 30°05' W 093°20'2 3.9
2017-Oct-13 04:31N 30°07' W 093°20'2 3.4
2017-Oct-13 04:00N 30°08' W 093°19'0 0.0
2017-Oct-13 03:30N 30°08' W 093°19'0 0.0
2017-Oct-13 03:01N 30°08' W 093°19'0 0.0
2017-Oct-13 02:31N 30°08' W 093°19'0 0.0
2017-Oct-13 02:00N 30°08' W 093°19'0 0.0
2017-Oct-13 01:31N 30°08' W 093°19'0 0.0
2017-Oct-13 01:01N 30°08' W 093°19'0 0.0
2017-Oct-13 00:30N 30°08' W 093°19'0 0.0
2017-Oct-13 00:00N 30°08' W 093°19'0 0.0
2017-Oct-12 23:31N 30°08' W 093°19'0 0.0
2017-Oct-12 23:00N 30°08' W 093°19'0 0.0
2017-Oct-12 22:30N 30°08' W 093°19'0 0.0
2017-Oct-12 22:01N 30°08' W 093°19'0 0.0
2017-Oct-12 21:30N 30°08' W 093°19'0 0.0
2017-Oct-12 21:01N 30°08' W 093°19'0 0.0
2017-Oct-12 20:30N 30°08' W 093°19'0 0.0
2017-Oct-12 20:01N 30°08' W 093°19'0 0.0
2017-Oct-12 19:30N 30°08' W 093°19'0 0.0
2017-Oct-12 19:01N 30°08' W 093°19'0 0.0
2017-Oct-12 18:30N 30°08' W 093°19'0 0.0
2017-Oct-12 18:00N 30°08' W 093°19'0 0.0
2017-Oct-12 17:30N 30°08' W 093°19'0 0.0
2017-Oct-12 17:01N 30°08' W 093°19'0 0.0
2017-Oct-12 16:31N 30°08' W 093°19'0 0.0
2017-Oct-12 16:00N 30°08' W 093°19'0 0.0
2017-Oct-12 15:30N 30°08' W 093°19'0 0.0
2017-Oct-12 15:00N 30°08' W 093°19'0 0.0
2017-Oct-12 14:30N 30°08' W 093°19'0 0.0
2017-Oct-12 14:00N 30°08' W 093°19'0 0.3
2017-Oct-12 13:30N 30°08' W 093°19'0 0.0
2017-Oct-12 13:00N 30°08' W 093°19'0 0.0
2017-Oct-12 12:31N 30°08' W 093°19'0 0.0
2017-Oct-12 12:01N 30°08' W 093°19'0 0.0
2017-Oct-12 11:31N 30°08' W 093°19'1 1.5
2017-Oct-12 11:00N 30°07' W 093°20'1 2.9
2017-Oct-12 10:31N 30°06' W 093°20'1 2.1
2017-Oct-12 10:00N 30°05' W 093°20'0 0.3
2017-Oct-12 09:30N 30°05' W 093°20'0 0.1
2017-Oct-12 09:00N 30°05' W 093°20'0 0.0
2017-Oct-12 08:30N 30°05' W 093°20'0 0.0
2017-Oct-12 08:00N 30°05' W 093°20'0 0.0
2017-Oct-12 07:31N 30°05' W 093°20'0 0.0
2017-Oct-12 07:01N 30°05' W 093°20'0 0.0
2017-Oct-12 06:31N 30°05' W 093°20'0 0.0
2017-Oct-12 06:00N 30°05' W 093°20'0 0.0
2017-Oct-12 05:30N 30°05' W 093°20'0 0.0
2017-Oct-12 05:00N 30°05' W 093°20'0 0.0
2017-Oct-12 04:30N 30°05' W 093°20'0 0.0
2017-Oct-12 04:00N 30°05' W 093°20'0 0.0
2017-Oct-12 03:30N 30°05' W 093°20'0 0.0
2017-Oct-12 03:00N 30°05' W 093°20'0 0.0
2017-Oct-12 02:31N 30°05' W 093°20'0 0.0
2017-Oct-12 02:01N 30°05' W 093°20'0 0.0
2017-Oct-12 01:31N 30°05' W 093°20'0 0.0
2017-Oct-12 01:01N 30°05' W 093°20'0 0.0
2017-Oct-12 00:31N 30°05' W 093°20'0 0.0
2017-Oct-12 00:01N 30°05' W 093°20'0 0.0
2017-Oct-11 23:30N 30°05' W 093°20'0 0.0
2017-Oct-11 23:01N 30°05' W 093°20'0 0.0
2017-Oct-11 22:31N 30°05' W 093°20'0 0.0
2017-Oct-11 22:00N 30°05' W 093°20'0 0.0
2017-Oct-11 21:31N 30°05' W 093°20'0 0.0
2017-Oct-11 21:01N 30°05' W 093°20'0 0.0
2017-Oct-11 20:30N 30°05' W 093°20'0 0.0
2017-Oct-11 20:01N 30°05' W 093°20'0 0.0
2017-Oct-11 19:30N 30°05' W 093°20'0 0.0
2017-Oct-11 19:00N 30°05' W 093°20'0 0.0
2017-Oct-11 18:30N 30°05' W 093°20'0 0.0
2017-Oct-11 18:00N 30°05' W 093°20'0 0.0
2017-Oct-11 17:31N 30°05' W 093°20'0 0.0
2017-Oct-11 17:00N 30°05' W 093°20'0 0.0
2017-Oct-11 00:01N 30°05' W 093°20'0 0.0
2017-Oct-10 23:30N 30°05' W 093°20'0 0.0
2017-Oct-10 23:00N 30°05' W 093°20'0 0.6
2017-Oct-10 22:30N 30°05' W 093°20'0 0.0
2017-Oct-10 22:01N 30°05' W 093°20'0 0.0
2017-Oct-10 21:30N 30°05' W 093°20'0 0.0
2017-Oct-10 21:01N 30°05' W 093°20'0 0.0
2017-Oct-10 20:30N 30°05' W 093°20'0 0.0
2017-Oct-10 20:00N 30°05' W 093°20'0 0.0
2017-Oct-10 19:31N 30°05' W 093°20'0 0.0
2017-Oct-10 19:00N 30°05' W 093°20'0 0.0
2017-Oct-10 18:30N 30°05' W 093°20'0 0.0
2017-Oct-10 18:00N 30°05' W 093°20'0 0.0
2017-Oct-10 17:31N 30°05' W 093°20'0 0.0
2017-Oct-10 17:01N 30°05' W 093°20'0 0.0
2017-Oct-10 16:31N 30°05' W 093°20'0 0.0
2017-Oct-10 16:01N 30°05' W 093°20'  
Track history (hours):
 
Tides and Currents Weather Stations Pressure Air Temp Water Temp Dewpoint Dewpoint Depression Visibility Wind Speed Wind Dir Waves Ship Positions

Jeff Brumfield

Owner: Florida Marine Transporters, Inc., Mandeville, LA. More information available from US FCC via Universal Licensing System and Coast Guard Vessel Documentation Center.

Last reported at 2017-Oct-20 15:44 UTC. Time now 2017-Oct-22 06:19 UTC.
Position N 30°01' W 093°59'.

Length 27 m; draft 3.2 m.

Type: Towing. MMSI: 367340440.

Date/timePositionNaut miles runAvg speedWind from/ knotsBaromVisibWave heightAir tempDewpointWater temp
2017-Oct-20 15:44N 30°01' W 093°59'0 0.0
2017-Oct-20 14:34N 30°01' W 093°59'0 0.0
2017-Oct-20 11:56N 30°01' W 093°59'0 0.0
2017-Oct-19 14:18N 30°01' W 093°59'0 0.0
2017-Oct-19 14:01N 30°01' W 093°59'0 0.0
2017-Oct-19 13:30N 30°01' W 093°59'0 0.0
2017-Oct-19 12:58N 30°01' W 093°59'0 0.0
2017-Oct-19 12:30N 30°01' W 093°59'0 0.0
2017-Oct-19 11:53N 30°01' W 093°59'0 0.0
2017-Oct-19 11:02N 30°01' W 093°59'0 0.0
2017-Oct-19 11:00N 30°01' W 093°59'0 0.0
2017-Oct-19 10:03N 30°01' W 093°59'0 0.0
2017-Oct-19 09:57N 30°01' W 093°59'0 0.0
2017-Oct-19 09:30N 30°01' W 093°59'0 0.0
2017-Oct-19 09:00N 30°01' W 093°59'8 1.3
2017-Oct-19 02:24N 29°59' W 093°49'3 5.1
2017-Oct-19 01:50N 29°60' W 093°46'4 4.4
2017-Oct-19 00:53N 30°03' W 093°43'2 4.7
2017-Oct-19 00:30N 30°04' W 093°41'2 4.7
2017-Oct-19 00:00N 30°04' W 093°39'2 4.3
2017-Oct-18 23:30N 30°03' W 093°36'2 4.8
2017-Oct-18 23:00N 30°04' W 093°33'1 2.5
2017-Oct-18 22:30N 30°04' W 093°32'2 4.6
2017-Oct-18 22:01N 30°04' W 093°29'2 4.6
2017-Oct-18 21:31N 30°04' W 093°27'2 4.5
2017-Oct-18 21:00N 30°04' W 093°24'2 4.3
2017-Oct-18 20:30N 30°04' W 093°22'2 4.1
2017-Oct-18 20:00N 30°05' W 093°20'2 3.1
2017-Oct-18 19:30N 30°06' W 093°19'0 0.0
2017-Oct-18 19:00N 30°06' W 093°19'0 0.0
2017-Oct-18 18:31N 30°06' W 093°19'0 0.0
2017-Oct-18 18:00N 30°06' W 093°19'1 1.6
2017-Oct-18 17:31N 30°06' W 093°20'2 4.3
2017-Oct-18 17:01N 30°08' W 093°19'0 0.2
2017-Oct-18 16:31N 30°08' W 093°19'0 0.0
2017-Oct-18 16:00N 30°08' W 093°19'0 0.0
2017-Oct-18 15:31N 30°08' W 093°19'0 0.0
2017-Oct-18 15:01N 30°08' W 093°19'0 0.0
2017-Oct-18 14:01N 30°08' W 093°19'0 0.0
2017-Oct-18 13:30N 30°08' W 093°19'0 0.0
2017-Oct-18 13:00N 30°08' W 093°19'0 0.0
2017-Oct-18 12:30N 30°08' W 093°19'0 0.0
2017-Oct-18 12:00N 30°08' W 093°19'0 0.0
2017-Oct-18 11:31N 30°08' W 093°19'0 0.0
2017-Oct-18 11:00N 30°08' W 093°19'0 0.0
2017-Oct-18 10:30N 30°08' W 093°19'0 0.0
2017-Oct-18 10:01N 30°08' W 093°19'0 0.0
2017-Oct-18 09:31N 30°08' W 093°19'0 0.0
2017-Oct-18 09:01N 30°08' W 093°19'0 0.0
2017-Oct-18 08:31N 30°08' W 093°19'0 0.0
2017-Oct-18 08:00N 30°08' W 093°19'0 0.0
2017-Oct-18 07:31N 30°08' W 093°19'0 0.0
2017-Oct-18 07:00N 30°08' W 093°19'0 0.0
2017-Oct-18 06:31N 30°08' W 093°19'0 0.0
2017-Oct-18 06:01N 30°08' W 093°19'0 0.0
2017-Oct-18 05:31N 30°08' W 093°19'0 0.0
2017-Oct-18 05:00N 30°08' W 093°19'0 0.0
2017-Oct-18 04:30N 30°08' W 093°19'0 0.0
2017-Oct-18 04:00N 30°08' W 093°19'0 0.0
2017-Oct-18 03:31N 30°08' W 093°19'0 0.0
2017-Oct-18 03:01N 30°08' W 093°19'0 0.0
2017-Oct-18 02:31N 30°08' W 093°19'0 0.0
2017-Oct-18 02:01N 30°08' W 093°19'0 0.4
2017-Oct-18 01:30N 30°08' W 093°19'1 2.0
2017-Oct-18 01:01N 30°07' W 093°20'2 3.5
2017-Oct-18 00:30N 30°06' W 093°20'1 1.7
2017-Oct-18 00:01N 30°05' W 093°20'0 0.0
2017-Oct-17 23:30N 30°05' W 093°20'0 0.0
2017-Oct-17 23:01N 30°05' W 093°20'0 0.0
2017-Oct-17 22:30N 30°05' W 093°20'0 0.0
2017-Oct-17 22:01N 30°05' W 093°20'0 0.0
2017-Oct-17 21:31N 30°05' W 093°20'0 0.0
2017-Oct-17 21:00N 30°05' W 093°20'0 0.0
2017-Oct-17 20:30N 30°05' W 093°20'0 0.0
2017-Oct-17 20:00N 30°05' W 093°20'0 0.0
2017-Oct-17 19:30N 30°05' W 093°20'0 0.0
2017-Oct-17 19:00N 30°05' W 093°20'0 0.0
2017-Oct-17 18:31N 30°05' W 093°20'0 0.0
2017-Oct-17 18:01N 30°05' W 093°20'0 0.0
2017-Oct-17 17:31N 30°05' W 093°20'0 0.0
2017-Oct-17 17:01N 30°05' W 093°20'0 0.0
2017-Oct-17 16:31N 30°05' W 093°20'0 0.0
2017-Oct-17 16:01N 30°05' W 093°20'0 0.0
2017-Oct-17 15:31N 30°05' W 093°20'0 0.0
2017-Oct-17 15:00N 30°05' W 093°20'0 0.0
2017-Oct-17 14:30N 30°05' W 093°20'0 0.0
2017-Oct-17 14:00N 30°05' W 093°20'0 0.0
2017-Oct-17 13:31N 30°05' W 093°20'0 0.0
2017-Oct-17 13:00N 30°05' W 093°20'0 0.0
2017-Oct-17 12:30N 30°05' W 093°20'0 0.0
2017-Oct-17 12:01N 30°05' W 093°20'0 0.0
2017-Oct-17 11:30N 30°05' W 093°20'0 0.0
2017-Oct-17 11:00N 30°05' W 093°20'0 0.0
2017-Oct-17 10:30N 30°05' W 093°20'0 0.0
2017-Oct-17 10:01N 30°05' W 093°20'0 0.0
2017-Oct-17 09:31N 30°05' W 093°20'0 0.0
2017-Oct-17 09:00N 30°05' W 093°20'0 0.0
2017-Oct-17 08:31N 30°05' W 093°20'0 0.0
2017-Oct-17 08:00N 30°05' W 093°20'0 0.0
2017-Oct-17 07:31N 30°05' W 093°20'0 0.0
2017-Oct-17 07:00N 30°05' W 093°20'0 0.0
2017-Oct-17 06:31N 30°05' W 093°20'0 0.0
2017-Oct-17 06:01N 30°05' W 093°20'0 0.0
2017-Oct-17 05:31N 30°05' W 093°20'0 0.0
2017-Oct-17 05:00N 30°05' W 093°20'0 0.0
2017-Oct-17 04:30N 30°05' W 093°20'0 0.0
2017-Oct-17 04:00N 30°05' W 093°20'0 0.0
2017-Oct-17 03:30N 30°05' W 093°20'0 0.0
2017-Oct-17 03:01N 30°05' W 093°20'0 0.0
2017-Oct-17 02:31N 30°05' W 093°20'0 0.0
2017-Oct-17 02:00N 30°05' W 093°20'0 0.0
2017-Oct-17 01:31N 30°05' W 093°20'0 0.0
2017-Oct-17 01:01N 30°05' W 093°20'0 0.0
2017-Oct-17 00:30N 30°05' W 093°20'0 0.0
2017-Oct-17 00:01N 30°05' W 093°20'0 0.0
2017-Oct-16 23:30N 30°05' W 093°20'0 0.0
2017-Oct-16 23:00N 30°05' W 093°20'0 0.0
2017-Oct-16 22:31N 30°05' W 093°20'0 0.0
2017-Oct-16 22:01N 30°05' W 093°20'0 0.0
2017-Oct-16 21:31N 30°05' W 093°20'0 0.0
2017-Oct-16 21:01N 30°05' W 093°20'0 0.0
2017-Oct-16 20:31N 30°05' W 093°20'0 0.0
2017-Oct-16 20:01N 30°05' W 093°20'0 0.0
2017-Oct-16 19:31N 30°05' W 093°20'0 0.0
2017-Oct-16 19:01N 30°05' W 093°20'0 0.0
2017-Oct-16 18:30N 30°05' W 093°20'0 0.0
2017-Oct-16 18:01N 30°05' W 093°20'0 0.0
2017-Oct-16 17:30N 30°05' W 093°20'0 0.0
2017-Oct-16 17:01N 30°05' W 093°20'0 0.0
2017-Oct-16 16:31N 30°05' W 093°20'0 0.0
2017-Oct-16 16:00N 30°05' W 093°20'0 0.0
2017-Oct-16 15:30N 30°05' W 093°20'0 0.0
2017-Oct-16 15:00N 30°05' W 093°20'0 0.0
2017-Oct-16 14:00N 30°05' W 093°20'0 0.0
2017-Oct-16 13:31N 30°05' W 093°20'0 0.0
2017-Oct-16 13:01N 30°05' W 093°20'0 0.0
2017-Oct-16 12:30N 30°05' W 093°20'0 0.0
2017-Oct-16 12:00N 30°05' W 093°20'0 0.0
2017-Oct-16 11:31N 30°05' W 093°20'0 0.0
2017-Oct-16 11:01N 30°05' W 093°20'0 0.0
2017-Oct-16 10:31N 30°05' W 093°20'0 0.0
2017-Oct-16 10:00N 30°05' W 093°20'0 0.0
2017-Oct-16 09:30N 30°05' W 093°20'0 0.0
2017-Oct-16 09:00N 30°05' W 093°20'0 0.0
2017-Oct-16 08:31N 30°05' W 093°20'0 0.0
2017-Oct-16 08:01N 30°05' W 093°20'0 0.0
2017-Oct-16 07:30N 30°05' W 093°20'0 0.0
2017-Oct-16 07:01N 30°05' W 093°20'0 0.0
2017-Oct-16 06:31N 30°05' W 093°20'0 0.0
2017-Oct-16 06:01N 30°05' W 093°20'0 0.0
2017-Oct-16 05:30N 30°05' W 093°20'0 0.0
2017-Oct-16 05:01N 30°05' W 093°20'0 0.0
2017-Oct-16 04:30N 30°05' W 093°20'0 0.0
2017-Oct-16 04:00N 30°05' W 093°20'0 0.0
2017-Oct-16 03:30N 30°05' W 093°20'0 0.0
2017-Oct-16 03:01N 30°05' W 093°20'0 0.0
2017-Oct-16 02:31N 30°05' W 093°20'0 0.0
2017-Oct-16 02:01N 30°05' W 093°20'0 0.0
2017-Oct-16 01:31N 30°05' W 093°20'0 0.0
2017-Oct-16 01:01N 30°05' W 093°20'0 0.0
2017-Oct-16 00:31N 30°05' W 093°20'0 0.0
2017-Oct-16 00:00N 30°05' W 093°20'0 0.0
2017-Oct-15 23:30N 30°05' W 093°20'0 0.0
2017-Oct-15 23:00N 30°05' W 093°20'0 0.0
2017-Oct-15 22:31N 30°05' W 093°20'0 0.0
2017-Oct-15 22:01N 30°05' W 093°20'0 0.0
2017-Oct-15 21:31N 30°05' W 093°20'0 0.0
2017-Oct-15 21:01N 30°05' W 093°20'0 0.0
2017-Oct-15 20:31N 30°05' W 093°20'0 0.0
2017-Oct-15 20:01N 30°05' W 093°20'0 0.0
2017-Oct-15 19:30N 30°05' W 093°20'0 0.0
2017-Oct-15 19:01N 30°05' W 093°20'0 0.1
2017-Oct-15 18:31N 30°05' W 093°20'0 0.6
2017-Oct-15 18:01N 30°05' W 093°20'0 0.0
2017-Oct-15 17:31N 30°05' W 093°20'0 0.0
2017-Oct-15 17:01N 30°05' W 093°20'0 0.0
2017-Oct-15 16:31N 30°05' W 093°20'0 0.0
2017-Oct-15 16:01N 30°05' W 093°20'0 0.0
2017-Oct-15 15:30N 30°05' W 093°20'0 0.0
2017-Oct-15 15:00N 30°05' W 093°20'0 0.3
2017-Oct-15 14:00N 30°05' W 093°20'1 2.4
2017-Oct-15 13:30N 30°06' W 093°19'0 0.7
2017-Oct-15 13:01N 30°06' W 093°19'2 4.1
2017-Oct-15 12:31N 30°04' W 093°21'2 3.6
2017-Oct-15 12:01N 30°04' W 093°23'2 4.7
2017-Oct-15 11:30N 30°04' W 093°26'2 4.7
2017-Oct-15 11:01N 30°04' W 093°28'2 4.7
2017-Oct-15 10:30N 30°04' W 093°31'2 4.6
2017-Oct-15 09:59N 30°04' W 093°34'2 4.4
2017-Oct-15 09:26N 30°04' W 093°37'3 4.7
2017-Oct-15 08:53N 30°04' W 093°40'2 5.2
2017-Oct-15 08:27N 30°03' W 093°42'15 0.9
2017-Oct-14 15:32N 30°01' W 093°59'0 0.0
2017-Oct-14 14:32N 30°01' W 093°59'0 0.0
2017-Oct-14 14:25N 30°01' W 093°59'0 0.0
2017-Oct-14 14:00N 30°01' W 093°59'0 0.0
2017-Oct-14 13:28N 30°01' W 093°59'0 0.0
2017-Oct-14 11:46N 30°01' W 093°59'0 0.0
2017-Oct-14 11:29N 30°01' W 093°59'0 0.0
2017-Oct-14 10:52N 30°01' W 093°59'0 0.0
2017-Oct-14 10:29N 30°01' W 093°59'0 0.0
2017-Oct-14 09:44N 30°01' W 093°59'0 0.2
2017-Oct-14 07:45N 30°01' W 093°59'0 0.0
2017-Oct-14 07:31N 30°01' W 093°59'0 0.0
2017-Oct-14 06:59N 30°01' W 093°59'6 0.3
2017-Oct-13 12:29N 29°59' W 093°52'8 4.1
2017-Oct-13 10:32N 30°02' W 093°44'0 4.6
2017-Oct-13 10:29N 30°03' W 093°44'2 4.3
2017-Oct-13 09:58N 30°04' W 093°42'1 2.5
2017-Oct-13 09:30N 30°04' W 093°40'2 3.1
2017-Oct-13 08:59N 30°04' W 093°39'2 3.8
2017-Oct-13 08:30N 30°04' W 093°36'2 3.2
2017-Oct-13 08:00N 30°04' W 093°35'2 4.4
2017-Oct-13 07:30N 30°04' W 093°32'2 3.7
2017-Oct-13 07:01N 30°04' W 093°30'2 4.6
2017-Oct-13 06:31N 30°04' W 093°27'2 4.6
2017-Oct-13 06:00N 30°04' W 093°25'2 4.2
2017-Oct-13 05:30N 30°04' W 093°22'2 3.8
2017-Oct-13 05:00N 30°05' W 093°20'2 3.9
2017-Oct-13 04:31N 30°07' W 093°20'2 3.4
2017-Oct-13 04:00N 30°08' W 093°19'0 0.0
2017-Oct-13 03:30N 30°08' W 093°19'0 0.0
2017-Oct-13 03:01N 30°08' W 093°19'0 0.0
2017-Oct-13 02:31N 30°08' W 093°19'0 0.0
2017-Oct-13 02:00N 30°08' W 093°19'0 0.0
2017-Oct-13 01:31N 30°08' W 093°19'0 0.0
2017-Oct-13 01:01N 30°08' W 093°19'0 0.0
2017-Oct-13 00:30N 30°08' W 093°19'0 0.0
2017-Oct-13 00:00N 30°08' W 093°19'0 0.0
2017-Oct-12 23:31N 30°08' W 093°19'0 0.0
2017-Oct-12 23:00N 30°08' W 093°19'0 0.0
2017-Oct-12 22:30N 30°08' W 093°19'0 0.0
2017-Oct-12 22:01N 30°08' W 093°19'0 0.0
2017-Oct-12 21:30N 30°08' W 093°19'0 0.0
2017-Oct-12 21:01N 30°08' W 093°19'0 0.0
2017-Oct-12 20:30N 30°08' W 093°19'0 0.0
2017-Oct-12 20:01N 30°08' W 093°19'0 0.0
2017-Oct-12 19:30N 30°08' W 093°19'0 0.0
2017-Oct-12 19:01N 30°08' W 093°19'0 0.0
2017-Oct-12 18:30N 30°08' W 093°19'0 0.0
2017-Oct-12 18:00N 30°08' W 093°19'0 0.0
2017-Oct-12 17:30N 30°08' W 093°19'0 0.0
2017-Oct-12 17:01N 30°08' W 093°19'0 0.0
2017-Oct-12 16:31N 30°08' W 093°19'0 0.0
2017-Oct-12 16:00N 30°08' W 093°19'0 0.0
2017-Oct-12 15:30N 30°08' W 093°19'0 0.0
2017-Oct-12 15:00N 30°08' W 093°19'0 0.0
2017-Oct-12 14:30N 30°08' W 093°19'0 0.0
2017-Oct-12 14:00N 30°08' W 093°19'0 0.3
2017-Oct-12 13:30N 30°08' W 093°19'0 0.0
2017-Oct-12 13:00N 30°08' W 093°19'0 0.0
2017-Oct-12 12:31N 30°08' W 093°19'0 0.0
2017-Oct-12 12:01N 30°08' W 093°19'0 0.0
2017-Oct-12 11:31N 30°08' W 093°19'1 1.5
2017-Oct-12 11:00N 30°07' W 093°20'1 2.9
2017-Oct-12 10:31N 30°06' W 093°20'1 2.1
2017-Oct-12 10:00N 30°05' W 093°20'0 0.3
2017-Oct-12 09:30N 30°05' W 093°20'0 0.1
2017-Oct-12 09:00N 30°05' W 093°20'0 0.0
2017-Oct-12 08:30N 30°05' W 093°20'0 0.0
2017-Oct-12 08:00N 30°05' W 093°20'0 0.0
2017-Oct-12 07:31N 30°05' W 093°20'0 0.0
2017-Oct-12 07:01N 30°05' W 093°20'0 0.0
2017-Oct-12 06:31N 30°05' W 093°20'0 0.0
2017-Oct-12 06:00N 30°05' W 093°20'0 0.0
2017-Oct-12 05:30N 30°05' W 093°20'0 0.0
2017-Oct-12 05:00N 30°05' W 093°20'0 0.0
2017-Oct-12 04:30N 30°05' W 093°20'0 0.0
2017-Oct-12 04:00N 30°05' W 093°20'0 0.0
2017-Oct-12 03:30N 30°05' W 093°20'0 0.0
2017-Oct-12 03:00N 30°05' W 093°20'0 0.0
2017-Oct-12 02:31N 30°05' W 093°20'0 0.0
2017-Oct-12 02:01N 30°05' W 093°20'0 0.0
2017-Oct-12 01:31N 30°05' W 093°20'0 0.0
2017-Oct-12 01:01N 30°05' W 093°20'0 0.0
2017-Oct-12 00:31N 30°05' W 093°20'0 0.0
2017-Oct-12 00:01N 30°05' W 093°20'0 0.0
2017-Oct-11 23:30N 30°05' W 093°20'0 0.0
2017-Oct-11 23:01N 30°05' W 093°20'0 0.0
2017-Oct-11 22:31N 30°05' W 093°20'0 0.0
2017-Oct-11 22:00N 30°05' W 093°20'0 0.0
2017-Oct-11 21:31N 30°05' W 093°20'0 0.0
2017-Oct-11 21:01N 30°05' W 093°20'0 0.0
2017-Oct-11 20:30N 30°05' W 093°20'0 0.0
2017-Oct-11 20:01N 30°05' W 093°20'0 0.0
2017-Oct-11 19:30N 30°05' W 093°20'0 0.0
2017-Oct-11 19:00N 30°05' W 093°20'0 0.0
2017-Oct-11 18:30N 30°05' W 093°20'0 0.0
2017-Oct-11 18:00N 30°05' W 093°20'0 0.0
2017-Oct-11 17:31N 30°05' W 093°20'0 0.0
2017-Oct-11 17:00N 30°05' W 093°20'0 0.0
2017-Oct-11 00:01N 30°05' W 093°20'0 0.0
2017-Oct-10 23:30N 30°05' W 093°20'0 0.0
2017-Oct-10 23:00N 30°05' W 093°20'0 0.6
2017-Oct-10 22:30N 30°05' W 093°20'0 0.0
2017-Oct-10 22:01N 30°05' W 093°20'0 0.0
2017-Oct-10 21:30N 30°05' W 093°20'0 0.0
2017-Oct-10 21:01N 30°05' W 093°20'0 0.0
2017-Oct-10 20:30N 30°05' W 093°20'0 0.0
2017-Oct-10 20:00N 30°05' W 093°20'0 0.0
2017-Oct-10 19:31N 30°05' W 093°20'0 0.0
2017-Oct-10 19:00N 30°05' W 093°20'0 0.0
2017-Oct-10 18:30N 30°05' W 093°20'0 0.0
2017-Oct-10 18:00N 30°05' W 093°20'0 0.0
2017-Oct-10 17:31N 30°05' W 093°20'0 0.0
2017-Oct-10 17:01N 30°05' W 093°20'0 0.0
2017-Oct-10 16:31N 30°05' W 093°20'0 0.0
2017-Oct-10 16:01N 30°05' W 093°20'  

Dump ship's entire track history